Time;durP1;ratioP1;P1;durP2;ratioP2;P2;SDS_P1;SDS_P2;PMS_P1;PMS_P2;Temp;Humidity;BMP_temperature;BMP_pressure;BME280_temperature;BME280_humidity;BME280_pressure;Samples;Min_cycle;Max_cycle;Signal;HPM_P1;HPM_P2
2021/10/18 00:01:45;;;;;;;24.20;16.77;;;7.90;99.90;;;;;;5011894;28;20061;-81
2021/10/18 00:04:11;;;;;;;21.35;16.60;;;7.90;99.90;;;;;;5021704;28;20033;-81
2021/10/18 00:06:37;;;;;;;26.50;18.15;;;7.90;99.90;;;;;;5021526;28;20030;-79
2021/10/18 00:09:03;;;;;;;24.70;17.50;;;8.00;99.90;;;;;;5021843;28;20018;-82
2021/10/18 00:11:29;;;;;;;24.67;17.35;;;8.00;99.90;;;;;;5021930;28;20123;-81
2021/10/18 00:13:55;;;;;;;25.25;16.45;;;8.00;99.90;;;;;;5020927;28;20034;-79
2021/10/18 00:16:22;;;;;;;22.25;15.32;;;8.00;99.90;;;;;;5021048;28;20045;-81
2021/10/18 00:18:48;;;;;;;24.88;17.50;;;7.90;99.90;;;;;;5003587;28;20096;-81
2021/10/18 00:21:14;;;;;;;28.75;19.95;;;7.90;99.90;;;;;;5003610;28;20446;-81
2021/10/18 00:23:40;;;;;;;26.48;20.50;;;7.90;99.90;;;;;;5021092;28;20356;-81
2021/10/18 00:26:06;;;;;;;26.17;18.13;;;7.90;99.90;;;;;;4983622;28;20069;-81
2021/10/18 00:28:32;;;;;;;26.73;19.02;;;7.90;99.90;;;;;;4983494;28;20050;-80
2021/10/18 00:30:58;;;;;;;21.55;16.23;;;7.80;99.90;;;;;;5001216;28;20025;-81
2021/10/18 00:33:23;;;;;;;26.45;19.30;;;7.80;99.90;;;;;;5000506;28;20383;-80
2021/10/18 00:35:49;;;;;;;25.77;18.88;;;7.80;99.90;;;;;;5002479;28;20041;-82
2021/10/18 00:38:15;;;;;;;24.13;18.35;;;7.80;99.90;;;;;;5003334;28;20068;-81
2021/10/18 00:40:41;;;;;;;27.10;19.10;;;7.80;99.90;;;;;;5020150;28;20493;-80
2021/10/18 00:43:07;;;;;;;26.55;19.85;;;7.80;99.90;;;;;;5021115;28;20109;-81
2021/10/18 00:45:33;;;;;;;24.40;18.58;;;7.70;99.90;;;;;;5021195;28;20459;-81
2021/10/18 00:48:00;;;;;;;23.00;18.00;;;7.70;99.90;;;;;;5002982;28;20086;-81
2021/10/18 00:50:26;;;;;;;26.33;19.98;;;7.70;99.90;;;;;;5021212;28;20018;-80
2021/10/18 00:52:53;;;;;;;27.15;20.65;;;7.80;99.90;;;;;;5020296;28;20049;-80
2021/10/18 00:55:19;;;;;;;25.42;19.48;;;7.80;99.90;;;;;;5008685;28;20040;-80
2021/10/18 00:57:46;;;;;;;24.10;18.38;;;7.70;99.90;;;;;;5019469;28;20062;-79
2021/10/18 01:00:13;;;;;;;23.13;17.70;;;7.80;99.90;;;;;;5020077;28;20041;-80
2021/10/18 01:02:38;;;;;;;22.85;16.88;;;7.80;99.90;;;;;;5020867;28;20030;-80
2021/10/18 01:05:07;;;;;;;24.60;17.95;;;7.80;99.90;;;;;;5020554;28;20453;-81
2021/10/18 01:07:33;;;;;;;25.77;17.90;;;7.90;99.90;;;;;;5019970;28;20032;-81
2021/10/18 01:09:59;;;;;;;25.27;17.83;;;7.80;99.90;;;;;;5020438;28;20185;-81
2021/10/18 01:12:25;;;;;;;21.02;16.60;;;7.90;99.90;;;;;;5019142;28;20018;-81
2021/10/18 01:14:51;;;;;;;23.02;17.23;;;7.90;99.90;;;;;;5020565;28;20025;-81
2021/10/18 01:17:17;;;;;;;21.85;14.85;;;7.90;99.90;;;;;;5019772;28;20173;-79
2021/10/18 01:19:42;;;;;;;16.80;12.98;;;7.90;99.90;;;;;;5019378;28;20026;-79
2021/10/18 01:22:08;;;;;;;21.35;16.45;;;7.90;99.90;;;;;;5019995;28;20030;-81
2021/10/18 01:24:35;;;;;;;23.15;16.45;;;8.00;99.90;;;;;;5012744;28;20117;-81
2021/10/18 01:27:02;;;;;;;20.48;15.18;;;8.00;99.90;;;;;;5018500;28;20026;-79
2021/10/18 01:29:32;;;;;;;19.98;14.27;;;7.90;99.90;;;;;;5009550;28;20022;-81
2021/10/18 01:31:58;;;;;;;19.52;13.98;;;8.00;99.90;;;;;;5000064;28;20038;-81
2021/10/18 01:34:26;;;;;;;18.40;14.52;;;8.00;99.90;;;;;;4983557;28;20027;-78
2021/10/18 01:36:54;;;;;;;27.52;18.20;;;8.10;99.90;;;;;;5016382;28;20050;-76
2021/10/18 01:39:20;;;;;;;27.27;17.35;;;8.10;99.90;;;;;;5011971;28;20053;-76
2021/10/18 01:41:46;;;;;;;21.23;14.70;;;8.00;99.90;;;;;;5010475;28;20042;-79
2021/10/18 01:44:11;;;;;;;20.13;14.80;;;8.10;99.90;;;;;;5012646;28;20030;-77
2021/10/18 01:46:37;;;;;;;19.75;13.70;;;8.10;99.90;;;;;;5015447;28;20053;-80
2021/10/18 01:49:03;;;;;;;24.27;16.23;;;8.10;99.90;;;;;;5024683;28;20639;-81
2021/10/18 01:51:28;;;;;;;21.15;15.32;;;8.20;99.90;;;;;;5023383;28;20455;-80
2021/10/18 01:53:54;;;;;;;20.40;15.43;;;8.10;99.90;;;;;;5025456;28;20026;-80
2021/10/18 01:56:20;;;;;;;20.05;15.35;;;8.00;99.90;;;;;;5013413;28;20149;-80
2021/10/18 01:58:46;;;;;;;18.70;13.40;;;8.00;99.90;;;;;;5033608;28;20077;-75
2021/10/18 02:01:11;;;;;;;17.65;13.70;;;8.00;99.90;;;;;;5034946;28;20045;-80
2021/10/18 02:03:37;;;;;;;17.85;13.68;;;8.00;99.90;;;;;;5015446;28;20026;-79
2021/10/18 02:06:03;;;;;;;22.02;16.80;;;8.00;99.90;;;;;;4998884;28;20088;-80
2021/10/18 02:08:33;;;;;;;24.65;18.30;;;8.10;99.90;;;;;;5001366;28;20033;-79
2021/10/18 02:10:59;;;;;;;20.60;14.65;;;8.00;99.90;;;;;;4982417;28;20023;-80
2021/10/18 02:13:25;;;;;;;18.75;14.32;;;7.90;99.90;;;;;;5000137;28;20029;-81
2021/10/18 02:15:51;;;;;;;18.73;13.43;;;7.80;99.90;;;;;;4999463;28;20368;-81
2021/10/18 02:18:16;;;;;;;18.42;12.63;;;7.80;99.90;;;;;;5010103;28;20026;-81
2021/10/18 02:20:42;;;;;;;20.25;14.30;;;7.90;99.90;;;;;;5019747;28;20085;-79
2021/10/18 02:23:07;;;;;;;18.45;13.73;;;7.90;99.90;;;;;;5019238;28;20040;-81
2021/10/18 02:25:33;;;;;;;15.65;11.75;;;7.90;99.90;;;;;;5011133;28;20117;-80
2021/10/18 02:27:59;;;;;;;18.23;12.02;;;7.90;99.90;;;;;;5019263;28;20113;-81
2021/10/18 02:30:25;;;;;;;16.50;12.65;;;7.90;99.90;;;;;;5019139;28;20106;-80
2021/10/18 02:32:50;;;;;;;20.38;14.88;;;7.90;99.90;;;;;;5019266;28;20030;-80
2021/10/18 02:35:16;;;;;;;24.08;17.08;;;7.90;99.90;;;;;;5022965;28;20034;-81
2021/10/18 02:37:42;;;;;;;24.63;17.45;;;7.90;99.90;;;;;;5022255;28;20029;-81
2021/10/18 02:40:08;;;;;;;22.92;16.15;;;7.80;99.90;;;;;;5022680;28;20022;-80
2021/10/18 02:42:34;;;;;;;24.65;17.17;;;7.80;99.90;;;;;;5021922;28;20030;-80
2021/10/18 02:45:00;;;;;;;27.33;18.88;;;7.70;99.90;;;;;;5022685;28;20493;-79
2021/10/18 02:47:26;;;;;;;26.05;17.40;;;7.70;99.90;;;;;;5021453;28;20018;-80
2021/10/18 02:49:51;;;;;;;22.77;16.60;;;7.70;99.90;;;;;;5025694;28;20026;-79
2021/10/18 02:52:20;;;;;;;23.05;16.30;;;7.70;99.90;;;;;;5024823;28;20037;-80
2021/10/18 02:54:45;;;;;;;24.13;16.48;;;7.70;99.90;;;;;;5010213;28;20050;-80
2021/10/18 02:57:11;;;;;;;24.35;17.33;;;7.70;99.90;;;;;;5035888;28;20057;-79
2021/10/18 02:59:37;;;;;;;27.15;18.20;;;7.60;99.90;;;;;;5035648;28;20026;-81
2021/10/18 03:02:02;;;;;;;29.55;20.42;;;7.60;99.90;;;;;;5010599;28;20092;-82
2021/10/18 03:04:28;;;;;;;31.13;20.85;;;7.70;99.90;;;;;;5026193;28;20439;-81
2021/10/18 03:06:54;;;;;;;30.70;20.88;;;7.70;99.90;;;;;;5027221;28;20038;-81
2021/10/18 03:09:19;;;;;;;28.85;20.30;;;7.70;99.90;;;;;;5026672;28;20094;-81
2021/10/18 03:11:45;;;;;;;24.77;16.80;;;7.70;99.90;;;;;;5026301;28;20072;-79
2021/10/18 03:14:11;;;;;;;22.05;15.82;;;7.70;99.90;;;;;;5028683;28;20026;-80
2021/10/18 03:16:37;;;;;;;21.50;15.77;;;7.70;99.90;;;;;;5010792;28;20046;-80
2021/10/18 03:19:03;;;;;;;21.73;14.77;;;7.80;99.90;;;;;;5025026;28;20026;-81
2021/10/18 03:21:29;;;;;;;17.65;12.73;;;7.80;99.90;;;;;;5026950;28;20030;-80
2021/10/18 03:23:54;;;;;;;22.38;14.80;;;7.90;99.90;;;;;;5027891;28;20014;-80
2021/10/18 03:26:20;;;;;;;18.13;13.68;;;7.90;99.90;;;;;;5029411;28;20032;-80
2021/10/18 03:28:46;;;;;;;23.77;14.27;;;7.90;99.90;;;;;;5028769;28;20502;-79
2021/10/18 03:31:12;;;;;;;19.00;13.50;;;7.90;99.90;;;;;;5025362;28;20022;-81
2021/10/18 03:33:39;;;;;;;21.50;14.68;;;7.90;99.90;;;;;;5025396;28;20029;-82
2021/10/18 03:36:05;;;;;;;22.75;14.98;;;7.90;99.90;;;;;;5006406;28;20029;-81
2021/10/18 03:38:32;;;;;;;21.58;15.10;;;7.90;99.90;;;;;;5025700;28;20026;-79
2021/10/18 03:40:58;;;;;;;25.63;17.00;;;7.90;99.90;;;;;;5036980;28;20018;-78
2021/10/18 03:43:24;;;;;;;31.75;22.02;;;7.90;99.90;;;;;;5032572;28;20082;-81
2021/10/18 03:45:49;;;;;;;26.67;19.05;;;7.90;99.90;;;;;;5009592;28;20069;-81
2021/10/18 03:48:15;;;;;;;28.35;18.33;;;7.80;99.90;;;;;;5025847;28;20410;-81
2021/10/18 03:50:41;;;;;;;24.95;16.77;;;7.70;99.90;;;;;;5025915;28;20029;-81
2021/10/18 03:53:07;;;;;;;24.38;16.58;;;7.70;99.90;;;;;;5005020;28;20037;-80
2021/10/18 03:55:33;;;;;;;23.65;16.27;;;7.70;99.90;;;;;;5000279;28;20034;-81
2021/10/18 03:57:59;;;;;;;21.38;14.75;;;7.80;99.90;;;;;;5024827;28;20030;-81
2021/10/18 04:00:25;;;;;;;20.90;14.55;;;7.80;99.90;;;;;;5026090;28;20418;-82
2021/10/18 04:02:51;;;;;;;23.98;16.08;;;7.80;99.90;;;;;;5026273;28;20033;-79
2021/10/18 04:05:16;;;;;;;22.52;15.65;;;7.80;99.90;;;;;;5027853;28;20021;-79
2021/10/18 04:07:46;;;;;;;29.27;19.27;;;7.80;99.90;;;;;;5028441;28;20139;-80
2021/10/18 04:10:12;;;;;;;34.22;22.88;;;7.80;99.90;;;;;;5023142;28;20019;-80
2021/10/18 04:12:38;;;;;;;30.73;20.40;;;7.90;99.90;;;;;;5024364;28;20029;-80
2021/10/18 04:15:04;;;;;;;31.55;21.60;;;7.80;99.90;;;;;;5023856;28;20335;-79
2021/10/18 04:17:30;;;;;;;34.45;22.98;;;7.80;99.90;;;;;;5027610;28;20036;-81
2021/10/18 04:19:56;;;;;;;34.53;23.60;;;7.80;99.90;;;;;;5027742;28;20049;-81
2021/10/18 04:22:22;;;;;;;32.13;20.75;;;7.80;99.90;;;;;;5031610;28;20069;-79
2021/10/18 04:24:48;;;;;;;28.73;19.75;;;7.80;99.90;;;;;;5027193;28;20030;-79
2021/10/18 04:27:14;;;;;;;24.98;16.88;;;7.70;99.90;;;;;;5032474;28;20060;-80
2021/10/18 04:29:40;;;;;;;24.58;17.10;;;7.80;99.90;;;;;;5011866;28;20041;-80
2021/10/18 04:32:06;;;;;;;24.83;16.42;;;7.90;99.90;;;;;;5008945;28;20101;-79
2021/10/18 04:34:31;;;;;;;28.23;17.10;;;7.90;99.90;;;;;;5008715;28;20411;-78
2021/10/18 04:36:57;;;;;;;31.30;21.67;;;8.00;99.90;;;;;;5008725;28;20026;-79
2021/10/18 04:39:23;;;;;;;32.67;23.00;;;8.00;99.90;;;;;;5013422;28;20045;-78
2021/10/18 04:41:49;;;;;;;29.30;20.73;;;7.90;99.90;;;;;;5010780;28;20455;-78
2021/10/18 04:44:15;;;;;;;28.80;19.95;;;7.90;99.90;;;;;;5006554;28;20061;-80
2021/10/18 04:46:41;;;;;;;31.80;21.83;;;7.90;99.90;;;;;;5021550;28;20034;-81
2021/10/18 04:49:07;;;;;;;40.50;24.70;;;7.90;99.90;;;;;;5025155;28;20064;-78
2021/10/18 04:51:32;;;;;;;33.97;23.02;;;7.80;99.90;;;;;;5023698;28;20017;-79
2021/10/18 04:53:58;;;;;;;31.55;20.92;;;7.80;99.90;;;;;;5022524;28;20037;-80
2021/10/18 04:56:24;;;;;;;34.33;21.45;;;7.70;99.90;;;;;;5005299;28;20036;-77
2021/10/18 04:58:49;;;;;;;29.35;19.80;;;7.70;99.90;;;;;;5001314;28;20069;-79
2021/10/18 05:01:15;;;;;;;27.90;19.10;;;7.70;99.90;;;;;;5000892;28;20073;-80
2021/10/18 05:03:41;;;;;;;29.48;20.05;;;7.60;99.90;;;;;;5005780;28;20494;-80
2021/10/18 05:06:06;;;;;;;26.20;17.92;;;7.70;99.90;;;;;;5027766;28;20029;-78
2021/10/18 05:08:32;;;;;;;26.83;16.10;;;7.80;99.90;;;;;;5027978;28;20029;-80
2021/10/18 05:10:58;;;;;;;24.90;16.50;;;7.80;99.90;;;;;;5028103;28;20026;-79
2021/10/18 05:13:24;;;;;;;31.88;21.95;;;7.90;99.90;;;;;;5027584;28;20078;-80
2021/10/18 05:15:52;;;;;;;27.95;19.70;;;7.90;99.90;;;;;;5027130;28;20029;-79
2021/10/18 05:18:18;;;;;;;27.15;17.85;;;7.80;99.90;;;;;;5026418;28;20046;-80
2021/10/18 05:20:47;;;;;;;27.38;19.02;;;7.80;99.90;;;;;;5020873;28;20030;-80
2021/10/18 05:23:12;;;;;;;29.25;19.23;;;7.80;99.90;;;;;;5013652;28;20030;-79
2021/10/18 05:25:38;;;;;;;31.35;19.85;;;7.80;99.90;;;;;;5019605;28;20049;-80
2021/10/18 05:28:05;;;;;;;36.38;22.98;;;7.80;99.90;;;;;;5026810;28;20105;-80
2021/10/18 05:30:31;;;;;;;36.72;22.77;;;7.80;99.90;;;;;;5027941;28;20033;-78
2021/10/18 05:32:58;;;;;;;33.63;22.77;;;7.80;99.90;;;;;;5027536;28;20367;-79
2021/10/18 05:35:25;;;;;;;31.63;21.38;;;7.80;99.90;;;;;;5003390;28;20018;-76
2021/10/18 05:37:52;;;;;;;40.25;23.77;;;7.80;99.90;;;;;;5016825;28;20033;-78
2021/10/18 05:40:19;;;;;;;32.08;21.23;;;7.80;99.90;;;;;;5009513;28;20025;-78
2021/10/18 05:42:46;;;;;;;33.65;21.27;;;7.80;99.90;;;;;;5013215;28;20137;-79
2021/10/18 05:45:12;;;;;;;43.58;24.70;;;7.80;99.90;;;;;;5026065;28;20022;-78
2021/10/18 05:47:59;;;;;;;37.00;24.17;;;7.80;99.90;;;;;;5032755;28;20037;-79
2021/10/18 05:50:27;;;;;;;41.80;24.88;;;7.80;99.90;;;;;;5024965;28;20034;-83
2021/10/18 05:52:54;;;;;;;39.50;24.45;;;7.70;99.90;;;;;;5021536;28;20054;-80
2021/10/18 05:55:20;;;;;;;36.42;22.95;;;7.80;99.90;;;;;;5007521;28;20018;-81
2021/10/18 05:57:56;;;;;;;36.47;23.15;;;7.90;99.90;;;;;;5002502;28;20030;-83
2021/10/18 06:00:23;;;;;;;33.72;21.73;;;7.80;99.90;;;;;;4993014;28;20026;-83
2021/10/18 06:02:50;;;;;;;40.95;23.13;;;7.90;99.90;;;;;;5014699;28;20086;-81
2021/10/18 06:05:16;;;;;;;36.80;22.48;;;7.90;99.90;;;;;;5011728;28;20019;-84
2021/10/18 06:07:42;;;;;;;31.55;19.85;;;7.90;99.90;;;;;;4987062;28;20400;-80
2021/10/18 06:10:09;;;;;;;29.33;20.02;;;7.90;99.90;;;;;;5004123;28;20030;-80
2021/10/18 06:12:37;;;;;;;41.03;24.98;;;8.00;99.90;;;;;;5005458;28;20022;-80
2021/10/18 06:15:04;;;;;;;35.45;21.63;;;8.00;99.90;;;;;;4997780;28;20030;-81
2021/10/18 06:17:30;;;;;;;33.78;21.30;;;8.00;99.90;;;;;;5003529;28;20034;-80
2021/10/18 06:19:55;;;;;;;31.98;19.88;;;8.00;99.90;;;;;;5006264;28;20018;-79
2021/10/18 06:22:21;;;;;;;28.27;18.02;;;8.10;99.90;;;;;;5006386;28;20506;-79
2021/10/18 06:24:50;;;;;;;27.92;17.42;;;8.10;99.90;;;;;;5019461;28;20026;-80
2021/10/18 06:27:16;;;;;;;28.52;18.38;;;8.10;99.90;;;;;;4990964;28;20085;-80
2021/10/18 06:29:42;;;;;;;30.67;19.67;;;8.20;99.90;;;;;;5009450;28;20390;-80
2021/10/18 06:32:08;;;;;;;30.85;19.60;;;8.30;99.90;;;;;;5028332;28;20045;-80
2021/10/18 06:34:33;;;;;;;27.58;17.75;;;8.40;99.90;;;;;;4997889;28;20053;-78
2021/10/18 06:37:01;;;;;;;34.47;21.42;;;8.40;99.90;;;;;;5009945;28;20031;-79
2021/10/18 06:39:27;;;;;;;44.08;25.42;;;8.50;99.90;;;;;;5018318;28;20363;-79
2021/10/18 06:41:53;;;;;;;40.65;25.63;;;8.50;99.90;;;;;;5015481;28;20112;-79
2021/10/18 06:44:19;;;;;;;34.15;21.45;;;8.40;99.90;;;;;;5004817;28;20063;-81
2021/10/18 06:46:44;;;;;;;29.80;19.65;;;8.50;99.90;;;;;;5006248;28;20037;-80
2021/10/18 06:49:10;;;;;;;30.65;17.65;;;8.60;99.90;;;;;;5006310;28;20029;-82
2021/10/18 06:51:44;;;;;;;27.17;17.42;;;8.60;99.90;;;;;;5007900;28;20030;-81
2021/10/18 06:54:12;;;;;;;28.30;18.95;;;8.60;99.90;;;;;;5016418;28;20025;-79
2021/10/18 06:56:43;;;;;;;27.05;17.00;;;8.50;99.90;;;;;;5009068;28;20018;-79
2021/10/18 06:59:13;;;;;;;37.53;21.77;;;8.60;99.90;;;;;;4993149;28;20050;-80
2021/10/18 07:01:39;;;;;;;33.72;22.20;;;8.60;99.90;;;;;;5008720;28;20070;-80
2021/10/18 07:04:06;;;;;;;36.33;23.30;;;8.50;99.90;;;;;;4990198;28;20022;-79
2021/10/18 07:06:32;;;;;;;35.95;22.08;;;8.40;99.90;;;;;;5022716;28;20042;-79
2021/10/18 07:08:57;;;;;;;32.63;20.15;;;8.50;99.90;;;;;;5028285;28;20048;-80
2021/10/18 07:11:23;;;;;;;36.33;21.52;;;8.50;99.90;;;;;;5026567;28;20029;-79
2021/10/18 07:13:49;;;;;;;32.75;21.00;;;8.60;99.90;;;;;;5028379;28;20104;-79
2021/10/18 07:16:14;;;;;;;33.78;20.55;;;8.70;99.90;;;;;;5026558;28;20034;-79
2021/10/18 07:18:40;;;;;;;31.90;20.05;;;8.80;99.90;;;;;;5025227;28;20391;-80
2021/10/18 07:21:06;;;;;;;30.90;19.67;;;8.90;99.90;;;;;;5025445;28;20140;-80
2021/10/18 07:23:31;;;;;;;28.50;18.65;;;8.90;99.90;;;;;;5016325;28;20025;-79
2021/10/18 07:25:57;;;;;;;28.48;18.60;;;8.90;99.90;;;;;;5013817;28;20057;-80
2021/10/18 07:28:24;;;;;;;28.08;18.65;;;9.00;99.90;;;;;;4986134;28;20034;-80
2021/10/18 07:30:51;;;;;;;34.58;21.45;;;9.00;99.90;;;;;;5008714;28;20073;-79
2021/10/18 07:33:17;;;;;;;29.75;18.65;;;8.90;99.90;;;;;;5012620;28;20019;-79
2021/10/18 07:35:42;;;;;;;32.35;19.98;;;8.90;99.90;;;;;;5013759;28;20041;-79
2021/10/18 07:38:11;;;;;;;32.45;20.15;;;8.90;99.90;;;;;;5014721;28;20499;-79
2021/10/18 07:40:37;;;;;;;33.88;20.45;;;9.00;99.90;;;;;;5026383;28;20025;-79
2021/10/18 07:43:03;;;;;;;32.53;21.13;;;9.00;99.90;;;;;;5016779;28;20045;-79
2021/10/18 07:45:29;;;;;;;31.70;19.42;;;8.90;99.90;;;;;;5033749;28;20061;-78
2021/10/18 07:47:55;;;;;;;30.17;18.55;;;8.90;99.90;;;;;;5029805;28;20036;-79
2021/10/18 07:50:21;;;;;;;25.90;17.02;;;9.00;99.90;;;;;;5032300;28;20038;-79
2021/10/18 07:52:47;;;;;;;25.00;16.67;;;9.10;99.90;;;;;;5023268;28;20499;-79
2021/10/18 07:55:16;;;;;;;24.17;17.00;;;9.20;99.90;;;;;;5015149;28;20022;-79
2021/10/18 07:57:43;;;;;;;22.38;15.73;;;9.20;99.90;;;;;;5020295;28;20029;-79
2021/10/18 08:00:10;;;;;;;27.85;17.20;;;9.30;99.90;;;;;;5022397;28;20026;-78
2021/10/18 08:02:36;;;;;;;24.52;15.77;;;9.40;99.90;;;;;;5028639;28;20033;-78
2021/10/18 08:05:02;;;;;;;23.67;15.13;;;9.50;99.90;;;;;;5035634;28;20014;-78
2021/10/18 08:07:31;;;;;;;18.73;13.85;;;9.80;99.90;;;;;;5003434;28;20080;-79
2021/10/18 08:09:58;;;;;;;18.05;12.88;;;9.90;99.90;;;;;;5023698;28;20030;-80
2021/10/18 08:12:24;;;;;;;23.52;15.05;;;10.10;99.90;;;;;;5005511;28;20034;-79
2021/10/18 08:14:49;;;;;;;26.73;16.65;;;10.10;99.90;;;;;;5021612;28;20062;-79
2021/10/18 08:17:15;;;;;;;29.95;16.85;;;10.20;99.90;;;;;;5019525;28;20033;-79
2021/10/18 08:19:42;;;;;;;22.77;15.23;;;10.20;99.90;;;;;;5020976;28;20030;-80
2021/10/18 08:22:07;;;;;;;21.73;15.00;;;10.40;99.90;;;;;;5005257;28;20509;-80
2021/10/18 08:24:34;;;;;;;26.38;16.38;;;10.40;99.90;;;;;;5016188;28;20010;-80
2021/10/18 08:26:59;;;;;;;22.33;14.07;;;10.40;99.90;;;;;;5004072;28;20022;-80
2021/10/18 08:29:25;;;;;;;22.00;14.23;;;10.30;99.90;;;;;;5019594;28;20356;-79
2021/10/18 08:31:51;;;;;;;18.77;12.45;;;10.40;99.90;;;;;;5021853;28;20045;-79
2021/10/18 08:34:16;;;;;;;19.95;13.23;;;10.50;99.90;;;;;;5035453;22;20050;-78
2021/10/18 08:36:42;;;;;;;21.63;13.77;;;10.60;99.90;;;;;;5011573;28;20022;-77
2021/10/18 08:41:39;;;;;;;27.65;18.55;;;10.50;99.90;;;;;;5008882;28;20042;-78
2021/10/18 08:44:15;;;;;;;26.92;17.30;;;10.40;99.90;;;;;;5010533;28;20019;-78
2021/10/18 08:46:45;;;;;;;26.80;16.45;;;10.40;99.90;;;;;;5009480;28;20057;-78
2021/10/18 08:49:11;;;;;;;22.00;13.57;;;10.50;99.90;;;;;;4990467;28;20073;-78
2021/10/18 08:51:37;;;;;;;23.13;14.93;;;10.60;99.90;;;;;;5021511;28;20065;-79
2021/10/18 08:54:07;;;;;;;25.70;16.13;;;10.70;99.90;;;;;;5016832;28;20483;-78
2021/10/18 08:56:33;;;;;;;28.13;18.10;;;10.70;99.90;;;;;;5015183;28;20021;-79
2021/10/18 08:58:59;;;;;;;31.55;20.55;;;10.80;99.90;;;;;;5030427;28;20120;-79
2021/10/18 09:01:44;;;;;;;37.95;22.40;;;10.80;99.90;;;;;;5031598;28;20037;-80
2021/10/18 09:04:15;;;;;;;33.67;22.45;;;11.00;99.90;;;;;;5032333;28;20018;-79
2021/10/18 09:06:45;;;;;;;27.48;18.23;;;11.00;99.90;;;;;;5032660;28;20054;-79
2021/10/18 09:09:12;;;;;;;33.17;19.38;;;11.20;99.90;;;;;;5004302;28;20399;-79
2021/10/18 09:11:38;;;;;;;33.42;20.95;;;11.30;99.90;;;;;;5021042;28;20028;-78
2021/10/18 09:14:04;;;;;;;35.58;21.65;;;11.40;99.30;;;;;;5020828;28;20397;-79
2021/10/18 09:16:44;;;;;;;34.80;19.80;;;11.50;98.90;;;;;;5027645;28;20186;-78
2021/10/18 09:19:17;;;;;;;41.05;23.85;;;11.50;98.80;;;;;;5027764;28;20032;-78
2021/10/18 09:21:49;;;;;;;28.70;19.42;;;11.70;98.10;;;;;;5003538;28;20030;-78
2021/10/18 09:24:37;;;;;;;34.40;21.10;;;11.70;98.20;;;;;;5021144;28;20033;-79
2021/10/18 09:27:08;;;;;;;31.00;18.50;;;11.80;97.60;;;;;;5026664;28;20038;-79
2021/10/18 09:29:44;;;;;;;27.05;17.35;;;11.90;97.50;;;;;;5004310;28;20328;-78
2021/10/18 09:32:09;;;;;;;23.63;15.05;;;11.90;97.50;;;;;;5020337;28;20529;-79
2021/10/18 09:34:36;;;;;;;19.35;13.75;;;11.80;97.60;;;;;;5001845;28;20038;-79
2021/10/18 09:37:10;;;;;;;30.77;19.35;;;12.00;97.80;;;;;;5019716;28;20022;-79
2021/10/18 09:39:43;;;;;;;38.22;21.73;;;12.10;96.80;;;;;;5020164;28;20029;-79
2021/10/18 09:42:17;;;;;;;31.60;19.25;;;12.20;95.80;;;;;;5018615;28;20471;-79
2021/10/18 10:53:43;;;;;;;18.63;12.82;;;13.70;88.60;;;;;;5018440;28;20037;-79
2021/10/18 10:56:24;;;;;;;14.98;10.55;;;13.60;89.60;;;;;;5026406;28;20041;-79
2021/10/18 11:01:52;;;;;;;29.83;19.08;;;14.10;88.90;;;;;;5031914;28;20026;-79
2021/10/18 11:04:29;;;;;;;;;;;14.30;86.10;;;;;;5035783;28;20441;-79
2021/10/18 11:07:03;;;;;;;23.83;14.75;;;14.50;85.90;;;;;;5034297;28;19980;-79
2021/10/18 11:09:37;;;;;;;21.80;15.25;;;14.60;85.50;;;;;;5035389;28;20077;-79
2021/10/18 11:12:04;;;;;;;21.48;14.40;;;14.90;84.30;;;;;;5034912;28;20006;-79
2021/10/18 11:14:31;;;;;;;19.02;13.13;;;15.00;83.70;;;;;;5033204;28;20085;-79
2021/10/18 11:16:57;;;;;;;24.10;16.13;;;15.20;83.30;;;;;;5031010;28;20097;-78
2021/10/18 11:19:23;;;;;;;20.73;14.43;;;15.20;81.90;;;;;;5028373;28;20098;-78
2021/10/18 11:22:00;;;;;;;22.95;15.55;;;15.00;82.20;;;;;;5025270;28;20022;-79
2021/10/18 11:24:40;;;;;;;28.77;19.35;;;14.80;82.60;;;;;;5020197;28;20018;-78
2021/10/18 11:27:06;;;;;;;28.52;18.40;;;14.60;82.50;;;;;;5025069;28;20042;-78
2021/10/18 11:29:34;;;;;;;24.10;15.55;;;14.50;82.80;;;;;;4971720;28;20026;-79
2021/10/18 11:32:09;;;;;;;23.83;16.75;;;14.60;84.00;;;;;;5003111;28;20407;-79
2021/10/18 11:34:36;;;;;;;20.13;14.30;;;14.90;83.40;;;;;;5002489;28;20030;-78
2021/10/18 11:37:03;;;;;;;26.27;16.80;;;15.10;82.40;;;;;;5003584;28;20033;-78
2021/10/18 11:39:31;;;;;;;20.80;14.20;;;15.20;81.30;;;;;;5002606;28;20095;-78
2021/10/18 11:42:10;;;;;;;15.68;12.63;;;15.30;81.00;;;;;;4986956;28;20023;-79
2021/10/18 11:44:49;;;;;;;22.40;16.20;;;15.40;80.80;;;;;;5004732;28;20094;-79
2021/10/18 11:47:31;;;;;;;21.08;14.48;;;15.40;79.80;;;;;;5010090;28;20010;-79
2021/10/18 11:50:11;;;;;;;21.85;15.68;;;15.50;79.80;;;;;;5013875;28;20026;-80
2021/10/18 11:52:56;;;;;;;22.83;15.63;;;15.50;79.30;;;;;;5009050;28;20037;-80
2021/10/18 11:55:33;;;;;;;33.97;23.75;;;15.40;79.80;;;;;;5014135;28;20034;-79
2021/10/18 11:58:05;;;;;;;34.70;23.15;;;15.20;79.90;;;;;;5002081;28;20027;-79
2021/10/18 12:00:40;;;;;;;37.20;22.58;;;14.70;82.20;;;;;;4983935;28;20106;-80
2021/10/18 12:03:22;;;;;;;35.47;23.73;;;14.40;85.20;;;;;;5002423;28;20105;-79
2021/10/18 12:05:50;;;;;;;37.88;24.17;;;14.40;85.90;;;;;;4986514;28;20038;-79
2021/10/18 12:08:20;;;;;;;33.33;21.70;;;14.60;84.50;;;;;;5002060;28;20026;-79
2021/10/18 12:10:49;;;;;;;37.30;22.58;;;14.80;84.40;;;;;;5002064;28;20130;-79
2021/10/18 12:13:18;;;;;;;26.00;19.33;;;14.90;84.80;;;;;;4984802;28;20022;-79
2021/10/18 12:15:52;;;;;;;34.85;23.38;;;15.20;84.00;;;;;;5001406;28;20026;-79
2021/10/18 12:18:23;;;;;;;37.88;23.63;;;15.40;81.90;;;;;;4984696;28;20050;-79
2021/10/18 12:20:52;;;;;;;34.80;23.52;;;15.40;80.10;;;;;;5001623;28;20045;-79
2021/10/18 12:23:20;;;;;;;29.98;21.05;;;15.30;80.70;;;;;;4998201;28;20031;-79
2021/10/18 12:25:58;;;;;;;31.92;22.23;;;14.90;82.00;;;;;;5020882;28;20046;-78
2021/10/18 12:28:39;;;;;;;32.90;21.33;;;14.70;83.00;;;;;;5014449;28;20019;-79
2021/10/18 12:31:07;;;;;;;27.55;20.17;;;14.60;83.90;;;;;;4989554;28;20031;-78
2021/10/18 12:33:38;;;;;;;29.08;20.70;;;14.60;83.80;;;;;;5000659;28;20117;-78
2021/10/18 12:36:06;;;;;;;30.25;21.35;;;14.50;83.60;;;;;;4983340;28;20022;-78
2021/10/18 12:38:36;;;;;;;30.92;20.88;;;14.60;83.30;;;;;;5002631;28;20033;-78
2021/10/18 12:41:07;;;;;;;36.05;24.23;;;14.70;83.40;;;;;;5013170;28;20025;-79
2021/10/18 12:43:32;;;;;;;28.40;20.02;;;14.70;82.90;;;;;;5012737;28;20092;-79
2021/10/18 12:46:17;;;;;;;32.42;21.88;;;14.70;84.20;;;;;;4992159;28;20062;-78
2021/10/18 12:48:58;;;;;;;28.38;19.58;;;14.50;84.60;;;;;;5011300;28;20015;-79
2021/10/18 12:51:37;;;;;;;30.40;21.80;;;14.40;85.20;;;;;;5008705;28;20030;-79
2021/10/18 12:54:25;;;;;;;31.85;20.90;;;14.60;84.70;;;;;;5009603;28;20113;-81
2021/10/18 12:57:04;;;;;;;30.58;21.55;;;14.50;85.30;;;;;;5019361;28;20025;-80
2021/10/18 12:59:31;;;;;;;32.28;21.10;;;14.60;84.80;;;;;;5000875;28;20117;-80
2021/10/18 13:02:16;;;;;;;31.63;21.13;;;14.60;85.00;;;;;;5019124;28;20041;-81
2021/10/18 13:05:11;;;;;;;31.92;22.38;;;14.80;84.60;;;;;;5020204;28;20041;-79
2021/10/18 13:07:43;;;;;;;33.03;22.88;;;14.80;83.90;;;;;;5029955;28;20026;-80
2021/10/18 13:10:11;;;;;;;32.92;21.88;;;14.70;84.20;;;;;;5003237;28;20022;-78
2021/10/18 13:12:38;;;;;;;31.67;20.60;;;14.60;85.30;;;;;;5018427;28;20125;-80
2021/10/18 13:15:06;;;;;;;27.67;19.13;;;14.60;85.90;;;;;;4994335;28;20038;-80
2021/10/18 13:17:32;;;;;;;28.90;20.02;;;14.60;85.80;;;;;;5006101;28;20027;-79
2021/10/18 13:19:58;;;;;;;28.35;18.52;;;14.70;85.50;;;;;;5000275;28;20025;-79
2021/10/18 13:22:24;;;;;;;28.17;17.73;;;14.80;85.50;;;;;;4999494;28;20027;-80
2021/10/18 13:24:51;;;;;;;30.25;19.80;;;15.00;84.70;;;;;;5008730;28;20179;-79
2021/10/18 13:27:18;;;;;;;26.60;18.48;;;15.00;83.40;;;;;;5001214;28;20026;-78
2021/10/18 13:29:44;;;;;;;29.38;20.25;;;15.00;84.10;;;;;;4994187;28;20026;-79
2021/10/18 13:32:11;;;;;;;33.88;21.70;;;14.90;83.60;;;;;;5008151;28;20038;-79
2021/10/18 13:34:38;;;;;;;25.98;18.13;;;14.90;83.40;;;;;;5019252;28;20065;-79
2021/10/18 13:37:03;;;;;;;28.98;20.13;;;14.80;85.00;;;;;;5018885;28;20418;-79
2021/10/18 13:39:29;;;;;;;29.30;19.77;;;14.70;85.20;;;;;;5002068;28;20026;-80
2021/10/18 13:41:56;;;;;;;25.20;18.35;;;14.60;85.00;;;;;;5019156;28;20037;-79
2021/10/18 13:44:22;;;;;;;29.10;19.70;;;14.60;85.90;;;;;;5018585;28;20080;-79
2021/10/18 13:46:47;;;;;;;29.75;20.05;;;14.60;85.40;;;;;;5000107;28;20555;-78
2021/10/18 13:49:14;;;;;;;30.45;20.50;;;14.50;85.70;;;;;;5031192;28;20022;-78
2021/10/18 13:51:40;;;;;;;26.98;19.83;;;14.50;86.40;;;;;;5032002;28;20394;-77